createdAt,value
2018-07-07T00:00:49.569Z,56.44
2018-07-07T00:03:18.647Z,56.83
2018-07-07T00:05:47.858Z,57.21
2018-07-07T00:08:17.787Z,57.00
2018-07-07T00:10:54.841Z,57.10
2018-07-07T00:13:25.087Z,57.42
2018-07-07T00:15:53.958Z,57.39
2018-07-07T00:18:22.961Z,57.89
2018-07-07T00:20:52.292Z,57.60
2018-07-07T00:23:21.082Z,57.84
2018-07-07T00:25:50.038Z,58.17
2018-07-07T00:28:19.293Z,58.20
2018-07-07T00:30:48.030Z,58.16
2018-07-07T00:33:17.188Z,58.02
2018-07-07T00:35:50.721Z,57.80
2018-07-07T00:38:20.507Z,57.80
2018-07-07T00:40:49.459Z,57.96
2018-07-07T00:43:18.900Z,57.68
2018-07-07T00:45:47.829Z,57.79
2018-07-07T00:48:17.126Z,57.29
2018-07-07T00:50:46.761Z,57.75
2018-07-07T00:53:16.576Z,58.05
2018-07-07T00:55:45.494Z,57.64
2018-07-07T00:58:14.728Z,57.38
2018-07-07T01:00:51.486Z,57.25
2018-07-07T01:03:20.726Z,57.14
2018-07-07T01:05:50.113Z,57.12
2018-07-07T01:08:19.365Z,56.74
2018-07-07T01:10:48.633Z,56.89
2018-07-07T01:13:17.746Z,56.63
2018-07-07T01:15:46.662Z,57.17
2018-07-07T01:18:15.928Z,56.92
2018-07-07T01:20:45.011Z,57.44
2018-07-07T01:23:13.816Z,57.06
2018-07-07T01:25:43.117Z,57.19
2018-07-07T01:28:12.089Z,56.86
2018-07-07T01:30:40.881Z,57.43
2018-07-07T01:33:10.099Z,57.05
2018-07-07T01:35:39.073Z,56.80
2018-07-07T01:38:08.053Z,56.93
2018-07-07T01:40:37.182Z,57.03
2018-07-07T01:43:06.232Z,57.46
2018-07-07T01:45:35.145Z,57.21
2018-07-07T01:48:04.654Z,57.35
2018-07-07T01:50:33.754Z,57.21
2018-07-07T01:53:02.768Z,57.27
2018-07-07T01:55:32.199Z,57.50
2018-07-07T01:58:01.889Z,57.44
2018-07-07T02:00:31.044Z,57.75
2018-07-07T02:03:00.593Z,57.79
2018-07-07T02:05:29.883Z,57.74
2018-07-07T02:07:59.026Z,57.91
2018-07-07T02:10:28.423Z,57.84
2018-07-07T02:12:57.509Z,57.99
2018-07-07T02:15:26.678Z,58.01
2018-07-07T02:17:55.894Z,58.02
2018-07-07T02:20:25.286Z,58.10
2018-07-07T02:22:54.673Z,58.03
2018-07-07T02:25:24.962Z,57.89
2018-07-07T02:27:53.774Z,57.57
2018-07-07T02:30:22.690Z,57.39
2018-07-07T02:32:52.604Z,57.15
2018-07-07T02:35:21.477Z,56.93
2018-07-07T02:37:50.371Z,56.70
2018-07-07T02:40:19.411Z,57.31
2018-07-07T02:42:48.571Z,57.39
2018-07-07T02:45:17.551Z,57.11
2018-07-07T02:47:47.059Z,57.40
2018-07-07T02:50:16.980Z,57.66
2018-07-07T02:52:46.916Z,57.35
2018-07-07T02:55:16.237Z,57.55
2018-07-07T02:57:45.424Z,57.60
2018-07-07T03:00:14.602Z,57.59
2018-07-07T03:02:43.623Z,57.73
2018-07-07T03:05:12.375Z,57.77
2018-07-07T03:07:41.679Z,57.87
2018-07-07T03:10:10.847Z,57.88
2018-07-07T03:12:39.670Z,57.70
2018-07-07T03:15:08.670Z,58.01
2018-07-07T03:17:38.921Z,58.06
2018-07-07T03:20:10.154Z,58.11
2018-07-07T03:22:39.262Z,58.19
2018-07-07T03:25:08.653Z,58.35
2018-07-07T03:27:37.481Z,58.34
2018-07-07T03:30:06.406Z,58.36
2018-07-07T03:32:35.221Z,58.54
2018-07-07T03:35:04.243Z,58.71
2018-07-07T03:37:33.229Z,58.71
2018-07-07T03:40:02.505Z,58.85
2018-07-07T03:42:31.792Z,58.87
2018-07-07T03:45:00.759Z,59.04
2018-07-07T03:47:29.883Z,59.13
2018-07-07T03:49:58.775Z,59.17
2018-07-07T03:52:27.580Z,59.31
2018-07-07T03:54:56.685Z,59.32
2018-07-07T03:57:25.986Z,59.26
2018-07-07T03:59:54.942Z,59.20
2018-07-07T04:02:24.147Z,58.75
2018-07-07T04:04:53.370Z,58.37
2018-07-07T04:07:22.192Z,58.28
2018-07-07T04:09:51.250Z,58.48
2018-07-07T04:12:20.533Z,58.70
2018-07-07T04:14:49.423Z,58.92
2018-07-07T04:17:18.533Z,58.86
2018-07-07T04:19:48.033Z,58.24
2018-07-07T04:22:17.237Z,58.00
2018-07-07T04:24:46.343Z,58.37
2018-07-07T04:27:15.642Z,58.47
2018-07-07T04:29:44.623Z,58.66
2018-07-07T04:32:13.619Z,58.77
2018-07-07T04:34:42.922Z,59.04
2018-07-07T04:37:11.706Z,59.05
2018-07-07T04:39:40.701Z,59.02
2018-07-07T04:42:10.058Z,59.44
2018-07-07T04:44:39.333Z,59.32
2018-07-07T04:47:08.305Z,59.42
2018-07-07T04:49:37.845Z,59.25
2018-07-07T04:52:06.808Z,59.09
2018-07-07T04:54:35.905Z,59.00
2018-07-07T04:57:05.330Z,58.90
2018-07-07T04:59:34.296Z,58.81
2018-07-07T05:02:03.150Z,58.77
2018-07-07T05:04:32.668Z,58.52
2018-07-07T05:07:01.592Z,58.42
2018-07-07T05:09:30.591Z,58.49
2018-07-07T05:11:59.739Z,58.40
2018-07-07T05:14:28.681Z,58.49
2018-07-07T05:16:58.058Z,58.65
2018-07-07T05:19:27.413Z,58.70
2018-07-07T05:21:56.269Z,58.73
2018-07-07T05:24:25.481Z,58.55
2018-07-07T05:26:54.891Z,58.67
2018-07-07T05:29:23.660Z,59.06
2018-07-07T05:31:52.779Z,59.28
2018-07-07T05:34:21.780Z,59.29
2018-07-07T05:36:50.650Z,59.20
2018-07-07T05:39:19.633Z,59.14
2018-07-07T05:41:49.226Z,59.95
2018-07-07T05:44:18.033Z,60.95
2018-07-07T05:46:47.031Z,60.41
2018-07-07T05:49:16.449Z,59.95
2018-07-07T05:51:45.421Z,60.04
2018-07-07T05:54:14.314Z,59.51
2018-07-07T05:56:43.853Z,60.25
2018-07-07T05:59:13.150Z,61.32
2018-07-07T06:01:42.426Z,60.96
2018-07-07T06:04:11.832Z,60.46
2018-07-07T06:06:40.620Z,60.92
2018-07-07T06:09:09.918Z,60.56
2018-07-07T06:11:39.265Z,60.31
2018-07-07T06:14:08.058Z,59.69
2018-07-07T06:16:37.000Z,59.04
2018-07-07T06:19:06.217Z,58.88
2018-07-07T06:21:34.981Z,57.91
2018-07-07T06:24:03.901Z,57.74
2018-07-07T06:26:33.297Z,58.62
2018-07-07T06:29:02.056Z,58.61
2018-07-07T06:31:31.163Z,59.17
2018-07-07T06:34:00.355Z,58.60
2018-07-07T06:36:29.105Z,58.16
2018-07-07T06:38:57.949Z,58.33
2018-07-07T06:41:27.213Z,57.88
2018-07-07T06:43:56.297Z,57.93
2018-07-07T06:46:25.530Z,60.08
2018-07-07T06:48:54.577Z,60.23
2018-07-07T06:51:23.525Z,57.82
2018-07-07T06:53:52.769Z,57.44
2018-07-07T06:56:22.165Z,57.68
2018-07-07T06:58:51.129Z,58.51
2018-07-07T07:01:20.039Z,57.85
2018-07-07T07:03:49.252Z,58.08
2018-07-07T07:06:18.407Z,57.65
2018-07-07T07:08:47.626Z,57.58
2018-07-07T07:11:16.943Z,58.52
2018-07-07T07:13:45.816Z,58.41
2018-07-07T07:16:14.585Z,58.73
2018-07-07T07:18:44.057Z,58.51
2018-07-07T07:21:12.995Z,58.25
2018-07-07T07:23:41.976Z,57.95
2018-07-07T07:26:11.641Z,58.06
2018-07-07T07:28:40.607Z,58.09
2018-07-07T07:31:09.491Z,58.28
2018-07-07T07:33:38.704Z,57.97
2018-07-07T07:36:10.346Z,57.86
2018-07-07T07:38:40.073Z,57.66
2018-07-07T07:41:08.906Z,57.90
2018-07-07T07:43:38.215Z,57.86
2018-07-07T07:46:07.170Z,57.70
2018-07-07T07:48:36.056Z,57.60
2018-07-07T07:51:05.005Z,57.73
2018-07-07T07:53:34.247Z,57.80
2018-07-07T07:56:03.236Z,57.25
2018-07-07T07:58:32.413Z,57.33
2018-07-07T08:01:01.845Z,57.36
2018-07-07T08:03:30.674Z,56.99
2018-07-07T08:05:59.489Z,56.96
2018-07-07T08:08:28.927Z,56.93
2018-07-07T08:10:58.117Z,56.64
2018-07-07T08:13:27.109Z,56.85
2018-07-07T08:15:56.330Z,56.25
2018-07-07T08:18:25.295Z,56.74
2018-07-07T08:20:54.272Z,56.84
2018-07-07T08:23:23.496Z,56.32
2018-07-07T08:25:52.378Z,56.71
2018-07-07T08:28:21.123Z,56.64
2018-07-07T08:30:50.164Z,56.64
2018-07-07T08:33:19.143Z,56.58
2018-07-07T08:35:47.944Z,56.30
2018-07-07T08:38:18.657Z,56.52
2018-07-07T08:40:47.555Z,56.52
2018-07-07T08:43:17.965Z,56.54
2018-07-07T08:45:47.736Z,56.55
2018-07-07T08:48:17.159Z,56.32
2018-07-07T08:50:46.530Z,56.25
2018-07-07T08:53:16.056Z,56.52
2018-07-07T08:55:45.848Z,55.94
2018-07-07T08:58:14.727Z,56.25
2018-07-07T09:00:44.008Z,55.91
2018-07-07T09:03:13.428Z,55.80
2018-07-07T09:05:42.410Z,55.91
2018-07-07T09:08:11.962Z,55.72
2018-07-07T09:10:40.913Z,55.85
2018-07-07T09:13:09.918Z,55.81
2018-07-07T09:15:39.182Z,56.01
2018-07-07T09:18:08.101Z,56.17
2018-07-07T09:20:37.097Z,56.07
2018-07-07T09:23:06.500Z,56.33
2018-07-07T09:25:35.297Z,55.99
2018-07-07T09:28:04.607Z,59.48
2018-07-07T09:30:33.760Z,56.42
2018-07-07T09:33:02.498Z,56.72
2018-07-07T09:35:32.022Z,57.00
2018-07-07T09:38:01.139Z,57.21
2018-07-07T09:40:29.863Z,57.51
2018-07-07T09:42:58.656Z,57.55
2018-07-07T09:45:27.986Z,57.28
2018-07-07T09:47:56.705Z,56.51
2018-07-07T09:50:25.472Z,57.10
2018-07-07T09:52:54.353Z,56.86
2018-07-07T09:55:23.072Z,56.82
2018-07-07T09:57:51.873Z,56.42
2018-07-07T10:00:26.141Z,57.09
2018-07-07T10:02:54.850Z,56.90
2018-07-07T10:05:23.613Z,57.04
2018-07-07T10:07:52.585Z,56.11
2018-07-07T10:10:21.374Z,56.48
2018-07-07T10:12:50.258Z,56.08
2018-07-07T10:15:19.422Z,56.18
2018-07-07T10:17:48.374Z,55.96
2018-07-07T10:20:17.462Z,56.57
2018-07-07T10:22:46.500Z,56.86
2018-07-07T10:25:15.390Z,58.14
2018-07-07T10:27:44.242Z,55.88
2018-07-07T10:30:13.283Z,56.95
2018-07-07T10:32:42.320Z,57.36
2018-07-07T10:35:11.304Z,58.79
2018-07-07T10:37:40.374Z,58.14
2018-07-07T10:40:09.106Z,56.94
2018-07-07T10:42:38.207Z,57.39
2018-07-07T10:45:08.758Z,56.89
2018-07-07T10:47:37.633Z,56.92
2018-07-07T10:50:06.525Z,56.74
2018-07-07T10:52:36.064Z,57.43
2018-07-07T10:55:05.174Z,57.00
2018-07-07T10:57:33.898Z,57.31
2018-07-07T11:00:02.947Z,56.95
2018-07-07T11:02:31.809Z,57.22
2018-07-07T11:05:00.506Z,56.66
2018-07-07T11:07:29.610Z,56.46
2018-07-07T11:09:58.319Z,56.00
2018-07-07T11:12:27.174Z,56.21
2018-07-07T11:14:56.303Z,56.30
2018-07-07T11:17:25.558Z,56.48
2018-07-07T11:19:55.006Z,56.52
2018-07-07T11:22:24.486Z,56.49
2018-07-07T11:24:53.978Z,56.95
2018-07-07T11:27:22.761Z,57.38
2018-07-07T11:29:52.191Z,57.41
2018-07-07T11:32:20.862Z,57.43
2018-07-07T11:34:50.140Z,57.69
2018-07-07T11:37:19.390Z,57.44
2018-07-07T11:39:48.344Z,57.85
2018-07-07T11:42:17.601Z,58.38
2018-07-07T11:44:46.668Z,58.24
2018-07-07T11:47:15.634Z,57.97
2018-07-07T11:49:44.637Z,57.96
2018-07-07T11:52:13.667Z,58.08
2018-07-07T11:54:42.522Z,57.98
2018-07-07T11:57:11.554Z,58.50
2018-07-07T11:59:40.777Z,58.28
2018-07-07T12:02:09.813Z,57.90
2018-07-07T12:04:38.645Z,57.54
2018-07-07T12:07:07.821Z,57.50
2018-07-07T12:09:36.917Z,57.21
2018-07-07T12:12:05.867Z,57.53
2018-07-07T12:14:35.601Z,57.40
2018-07-07T12:17:04.702Z,56.85
2018-07-07T12:19:33.725Z,56.75
2018-07-07T12:22:03.150Z,57.13
2018-07-07T12:24:32.067Z,56.77
2018-07-07T12:27:00.828Z,56.65
2018-07-07T12:29:30.230Z,56.76
2018-07-07T12:31:59.325Z,56.32
2018-07-07T12:34:28.157Z,56.33
2018-07-07T12:36:57.220Z,56.64
2018-07-07T12:39:26.261Z,56.20
2018-07-07T12:41:55.455Z,56.68
2018-07-07T12:44:24.482Z,56.53
2018-07-07T12:46:53.433Z,56.94
2018-07-07T12:49:23.851Z,56.72
2018-07-07T12:51:53.113Z,56.54
2018-07-07T12:54:21.970Z,56.57
2018-07-07T12:56:50.857Z,56.70
2018-07-07T12:59:20.235Z,56.80
2018-07-07T13:01:49.145Z,56.77
2018-07-07T13:04:18.130Z,56.94
2018-07-07T13:06:47.658Z,57.35
2018-07-07T13:09:16.637Z,56.83
2018-07-07T13:11:45.422Z,56.78
2018-07-07T13:14:14.718Z,56.47
2018-07-07T13:16:43.687Z,56.84
2018-07-07T13:19:12.665Z,57.47
2018-07-07T13:21:41.753Z,57.86
2018-07-07T13:24:10.703Z,57.52
2018-07-07T13:26:39.750Z,57.44
2018-07-07T13:29:08.685Z,57.02
2018-07-07T13:31:37.474Z,57.24
2018-07-07T13:34:06.383Z,57.26
2018-07-07T13:36:35.733Z,57.21
2018-07-07T13:39:05.185Z,57.21
2018-07-07T13:41:33.897Z,56.88
2018-07-07T13:44:03.089Z,57.37
2018-07-07T13:46:32.103Z,57.40
2018-07-07T13:49:00.977Z,57.99
2018-07-07T13:51:30.361Z,57.59
2018-07-07T13:53:59.292Z,57.90
2018-07-07T13:56:28.194Z,57.48
2018-07-07T13:58:57.402Z,57.14
2018-07-07T14:01:26.318Z,56.23
2018-07-07T14:03:55.115Z,57.22
2018-07-07T14:06:24.362Z,57.96
2018-07-07T14:08:53.429Z,57.62
2018-07-07T14:11:22.344Z,57.31
2018-07-07T14:13:51.538Z,57.77
2018-07-07T14:16:20.332Z,58.26
2018-07-07T14:18:49.270Z,58.74
2018-07-07T14:21:18.117Z,59.57
2018-07-07T14:23:47.063Z,59.22
2018-07-07T14:26:16.203Z,60.53
2018-07-07T14:28:45.281Z,60.14
2018-07-07T14:31:14.352Z,60.61
2018-07-07T14:33:43.359Z,60.20
2018-07-07T14:36:12.885Z,59.80
2018-07-07T14:38:42.026Z,59.55
2018-07-07T14:41:17.187Z,59.03
2018-07-07T14:43:59.098Z,58.49
2018-07-07T14:46:28.623Z,58.80
2018-07-07T14:48:57.289Z,58.57
2018-07-07T14:51:26.020Z,58.12
2018-07-07T14:53:55.482Z,58.10
2018-07-07T14:56:25.020Z,57.80
2018-07-07T14:58:53.875Z,57.38
2018-07-07T15:01:23.141Z,57.94
2018-07-07T15:03:51.969Z,57.84
2018-07-07T15:06:20.663Z,57.66
2018-07-07T15:08:49.974Z,57.81
2018-07-07T15:11:18.780Z,58.25
2018-07-07T15:13:48.362Z,58.69
2018-07-07T15:16:17.493Z,58.79
2018-07-07T15:36:02.429Z,57.26
2018-07-07T15:38:31.671Z,57.13
2018-07-07T15:41:00.563Z,56.82
2018-07-07T15:43:29.527Z,56.02
2018-07-07T15:45:58.670Z,56.73
2018-07-07T15:48:27.532Z,57.18
2018-07-07T15:50:56.623Z,57.04
2018-07-07T15:53:25.894Z,57.38
2018-07-07T15:55:55.007Z,57.65
2018-07-07T15:58:23.797Z,57.87
2018-07-07T16:18:08.979Z,59.63
2018-07-07T16:20:38.077Z,59.91
2018-07-07T16:23:07.246Z,59.72
2018-07-07T16:42:52.628Z,61.21
2018-07-07T16:45:21.599Z,61.39
2018-07-07T16:47:50.658Z,64.32
2018-07-07T16:50:19.846Z,61.49
2018-07-07T16:52:48.965Z,60.95
2018-07-07T16:55:18.067Z,60.23
2018-07-07T16:57:47.326Z,59.28
2018-07-07T17:00:16.274Z,60.56
2018-07-07T17:02:45.458Z,62.70
2018-07-07T17:05:14.604Z,63.52
2018-07-07T17:07:43.524Z,61.69
2018-07-07T17:10:12.662Z,61.51
2018-07-07T17:12:42.136Z,61.72
2018-07-07T17:32:27.341Z,58.45
2018-07-07T17:34:57.168Z,57.60
2018-07-07T17:37:26.482Z,58.19
2018-07-07T17:39:55.755Z,57.67
2018-07-07T17:42:25.096Z,58.34
2018-07-07T17:44:54.034Z,57.71
2018-07-07T17:47:23.332Z,57.61
2018-07-07T18:07:11.362Z,57.42
2018-07-07T18:26:56.917Z,56.86
2018-07-07T18:46:43.389Z,59.86
2018-07-07T18:49:12.430Z,59.35
2018-07-07T18:51:41.629Z,58.73
2018-07-07T18:54:10.461Z,58.51
2018-07-07T18:56:39.504Z,58.62
2018-07-07T19:16:24.725Z,57.99
2018-07-07T19:36:13.176Z,57.26
2018-07-07T19:38:42.205Z,57.67
2018-07-07T19:58:26.666Z,57.10
2018-07-07T20:00:55.699Z,57.24
2018-07-07T20:20:46.103Z,56.12
2018-07-07T20:23:16.614Z,56.75
2018-07-07T20:25:50.915Z,56.26
2018-07-07T21:02:54.815Z,55.95
2018-07-07T21:05:24.036Z,55.54
2018-07-07T21:25:10.846Z,55.77
2018-07-07T21:27:39.919Z,59.76
2018-07-07T21:30:08.930Z,60.02
2018-07-07T21:32:38.310Z,58.81
2018-07-07T21:35:07.567Z,57.67
2018-07-07T21:37:36.791Z,58.06
2018-07-07T21:40:06.276Z,57.93
2018-07-07T21:59:51.181Z,56.59
2018-07-07T22:02:25.423Z,56.47
2018-07-07T22:04:59.423Z,56.49
2018-07-07T22:07:33.875Z,56.15
2018-07-07T22:10:02.727Z,56.70
2018-07-07T22:12:31.868Z,56.38
2018-07-07T22:15:01.223Z,56.36
2018-07-07T22:17:30.079Z,56.03
2018-07-07T22:19:59.211Z,56.05
2018-07-07T22:22:28.742Z,56.23
2018-07-07T22:24:57.499Z,55.81
2018-07-07T22:44:44.013Z,55.56
2018-07-07T22:47:12.810Z,55.47
2018-07-07T22:49:41.965Z,55.27
2018-07-07T23:09:26.992Z,54.83
2018-07-07T23:11:56.004Z,55.24
2018-07-07T23:14:25.154Z,54.86
2018-07-07T23:16:58.313Z,54.73
2018-07-07T23:19:27.596Z,54.51
2018-07-07T23:21:56.895Z,54.09
2018-07-07T23:24:25.974Z,54.60
2018-07-07T23:26:55.371Z,54.48
2018-07-07T23:29:24.493Z,54.11
2018-07-07T23:31:53.817Z,53.97
2018-07-07T23:34:22.696Z,54.28
2018-07-07T23:36:51.573Z,54.26
2018-07-07T23:39:20.635Z,54.09
2018-07-07T23:41:49.379Z,54.40
2018-07-07T23:44:18.561Z,53.96
2018-07-07T23:46:47.493Z,54.16
2018-07-07T23:49:16.436Z,53.90
